• Join FlightAware (Why Join?)
  • Login
  • US Flag 
02:10AM EST


 

Airport Tracker/Info


-or-


 

Live Flight TrackerFlight Track Log ✈ N5659W ✈ 01-Nov-2013 ✈ KGAD - KIKK

Flight Track Log - Related Links

Times and Time Zones

All times are in EDT time to prevent confusion due to time zone crossing. See the N5659W flight status page for this flight to view local times or setup timezone preferences in your user account.

Time Position Orientation Groundspeed Altitude Reporting Facility
EDT Latitude Longitude Course Direction KTS MPH feet Rate Location/Type
02:43PM 34.2081 -86.1564 359° North 89 102 3,400  Level Atlanta Center
02:44PM 34.2228 -86.1567 359° North 102 117 3,700 540 Climbing Atlanta Center
02:44PM 34.2267 -86.1617 313° West 81 93 3,800 360 Climbing Atlanta Center
02:45PM 34.2436 -86.1622 358° North 81 93 4,100 420 Climbing Atlanta Center
02:46PM 34.2642 -86.1678 347° North 87 100 4,600 480 Climbing Atlanta Center
02:48PM 34.3089 -86.1806 347° North 79 91 5,700 420 Climbing Memphis Center
02:49PM 34.3281 -86.1872 344° North 67 77 6,000 300 Climbing Memphis Center
02:50PM 34.3469 -86.1889 356° North 67 77 6,400 300 Climbing Memphis Center
02:51PM 34.3658 -86.1956 344° North 67 77 6,700 240 Climbing Memphis Center
02:52PM 34.3828 -86.1997 349° North 72 83 6,900 240 Climbing Memphis Center
02:53PM 34.4017 -86.2039 350° North 72 83 7,200 300 Climbing Memphis Center
02:54PM 34.4183 -86.2056 355° North 72 83 7,500 240 Climbing Memphis Center
02:55PM 34.4414 -86.2119 347° North 72 83 7,700 120 Climbing Memphis Center
02:56PM 34.4603 -86.2161 350° North 72 83 7,800 180 Climbing Memphis Center
02:57PM 34.4856 -86.2197 353° North 72 83 8,100 240 Climbing Memphis Center
02:58PM 34.5067 -86.2264 345° North 77 89 8,300 240 Climbing Memphis Center
02:59PM 34.5297 -86.2303 352° North 77 89 8,600 180 Climbing Memphis Center
03:00PM 34.5528 -86.2342 352° North 83 96 8,700 180 Climbing Memphis Center
03:01PM 34.5758 -86.2408 347° North 88 101 9,000 240 Climbing Memphis Center
03:02PM 34.6011 -86.2444 353° North 88 101 9,200 240 Climbing Memphis Center
03:03PM 34.6222 -86.2486 351° North 88 101 9,500 240 Climbing Memphis Center
03:04PM 34.6453 -86.2575 342° North 88 101 9,700 120 Climbing Memphis Center
03:05PM 34.6664 -86.2642 345° North 88 101 9,800 60 Climbing Memphis Center
03:06PM 34.6894 -86.2681 352° North 88 101 9,900 120 Climbing Memphis Center
03:07PM 34.7108 -86.2772 341° North 88 101 10,100 120 Climbing Memphis Center
03:08PM 34.7317 -86.2836 346° North 88 101 10,200 120 Climbing Memphis Center
03:09PM 34.7550 -86.2900 347° North 83 96 10,400 180 Climbing Memphis Center
03:10PM 34.7803 -86.2964 348° North 88 101 10,600 180 Climbing Memphis Center
03:11PM 34.8033 -86.3006 352° North 88 101 10,800 180 Climbing Memphis Center
03:12PM 34.8283 -86.3042 353° North 88 101 11,000 120 Climbing Memphis Center
03:13PM 34.8536 -86.3106 348° North 88 101 11,100  Climbing Memphis Center
03:14PM 34.8811 -86.3194 345° North 93 107 11,100  Level Memphis Center
03:15PM 34.9103 -86.3231 354° North 93 107 11,100 -60 Level Memphis Center
03:16PM 34.9417 -86.3267 355° North 104 120 11,000 -60 Descending Memphis Center
03:17PM 34.9711 -86.3278 358° North 104 120 11,000  Level Memphis Center
03:18PM 35.0003 -86.3314 354° North 104 120 11,000  Level Memphis Center
03:19PM 35.0278 -86.3378 349° North 104 120 11,000  Level Memphis Center
03:20PM 35.0531 -86.3442 348° North 104 120 11,100  Climbing Memphis Center
03:21PM 35.0822 -86.3503 350° North 98 113 11,100  Level Memphis Center
03:22PM 35.1097 -86.3567 349° North 109 125 11,100  Level Memphis Center
03:23PM 35.1411 -86.3603 355° North 109 125 11,100  Level Memphis Center
03:24PM 35.1686 -86.3692 345° North 104 120 11,100  Level Memphis Center
03:25PM 35.1958 -86.3756 349° North 104 120 11,100 -60 Level Memphis Center
03:26PM 35.2233 -86.3842 346° North 104 120 11,000 -60 Descending Memphis Center
03:27PM 35.2503 -86.3856 358° North 104 120 11,000  Level Memphis Center
03:28PM 35.2756 -86.3944 344° North 99 114 11,000  Level Memphis Center
03:29PM 35.3031 -86.4008 349° North 94 108 11,000  Level Memphis Center
03:30PM 35.3283 -86.4072 348° North 94 108 11,100  Climbing Memphis Center
03:31PM 35.3556 -86.4136 349° North 89 102 11,100  Level Memphis Center
03:32PM 35.3831 -86.4225 345° North 89 102 11,100  Level Memphis Center
03:33PM 35.4103 -86.4264 353° North 95 109 11,100  Level Memphis Center
03:34PM 35.4394 -86.4325 350° North 102 117 11,100  Level Memphis Center
03:35PM 35.4689 -86.4389 350° North 107 123 11,100  Level Memphis Center
03:36PM 35.4961 -86.4428 353° North 102 117 11,100  Level Memphis Center
03:37PM 35.5214 -86.4517 344° North 102 117 11,100  Level Memphis Center
03:38PM 35.5508 -86.4581 350° North 102 117 11,100 -60 Level Memphis Center
03:39PM 35.5803 -86.4667 347° North 108 124 11,000  Descending Memphis Center
03:40PM 35.6078 -86.4731 349° North 102 117 11,100  Climbing Memphis Center
03:41PM 35.6331 -86.4797 348° North 102 117 11,100  Level Memphis Center
03:42PM 35.6603 -86.4861 349° North 97 112 11,200  Climbing Memphis Center
03:43PM 35.6897 -86.4922 350° North 97 112 11,200 -60 Level Memphis Center
03:44PM 35.7169 -86.4986 349° North 102 117 11,100 -60 Descending Memphis Center
03:45PM 35.7464 -86.5050 350° North 102 117 11,100  Level Memphis Center
03:46PM 35.7717 -86.5114 348° North 102 117 11,100 -60 Level Memphis Center
03:47PM 35.7989 -86.5206 345° North 97 112 11,000  Descending Memphis Center
03:48PM 35.8242 -86.5244 353° North 97 112 11,100 60 Climbing Memphis Center
03:49PM 35.8492 -86.5283 353° North 92 106 11,200  Climbing Memphis Center
03:50PM 35.8786 -86.5347 350° North 98 113 11,100 -120 Descending Memphis Center
03:52PM 35.9333 -86.5500 347° North 101 116 11,000 -60 Descending Nashville TRACON
03:53PM 35.9667 -86.5500 360° North 99 114 11,000  Level Nashville TRACON
03:54PM 35.9833 -86.5500 360° North 98 113 11,000  Level Nashville TRACON
03:55PM 36.0167 -86.5667 338° Northwest 92 106 11,000  Level Nashville TRACON
03:56PM 36.0333 -86.5667 360° North 92 106 11,000  Level Nashville TRACON
03:57PM 36.0667 -86.5833 338° Northwest 96 110 11,100  Climbing Nashville TRACON
03:58PM 36.1000 -86.5833 360° North 101 116 11,100 -60 Level Nashville TRACON
03:59PM 36.1167 -86.5833 360° North 102 117 11,000 -60 Descending Nashville TRACON
04:00PM 36.1500 -86.6000 338° Northwest 100 115 11,000  Level Nashville TRACON
04:01PM 36.1833 -86.6000 360° North 102 117 11,000  Level Nashville TRACON
04:02PM 36.2000 -86.6167 321° Northwest 104 120 11,100  Climbing Nashville TRACON
04:03PM 36.2333 -86.6167 360° North 111 128 11,000 -120 Descending Nashville TRACON
04:04PM 36.2667 -86.6167 360° North 104 120 10,900 -60 Descending Nashville TRACON
04:05PM 36.2833 -86.6333 321° Northwest 93 107 10,900  Level Nashville TRACON
04:06PM 36.3167 -86.6333 360° North 89 102 10,900  Level Nashville TRACON
04:07PM 36.3333 -86.6500 321° Northwest 87 100 10,900  Level Nashville TRACON
04:08PM 36.3667 -86.6500 360° North 91 105 11,000 60 Climbing Nashville TRACON
04:09PM 36.3833 -86.6500 360° North 94 108 11,100  Climbing Nashville TRACON
04:10PM 36.4167 -86.6667 338° Northwest 93 107 11,100  Level Nashville TRACON
04:11PM 36.4519 -86.6753 349° North 99 114 11,100 -60 Level Memphis Center
04:12PM 36.4750 -86.6794 352° North 105 121 11,000 -60 Descending Memphis Center
04:13PM 36.5003 -86.6836 352° North 93 107 11,000 60 Level Memphis Center
04:14PM 36.5211 -86.6903 346° North 83 96 11,200  Climbing Memphis Center
04:15PM 36.5464 -86.6994 344° North 88 101 11,100 -60 Descending Memphis Center
04:16PM 36.5675 -86.7036 351° North 88 101 11,100  Level Memphis Center
04:17PM 36.5906 -86.7103 347° North 88 101 11,200  Climbing Memphis Center
04:18PM 36.6136 -86.7144 352° North 88 101 11,100  Descending Memphis Center
04:19PM 36.6389 -86.7211 348° North 88 101 11,200  Climbing Memphis Center
04:20PM 36.6619 -86.7278 347° North 88 101 11,200 -120 Level Memphis Center
04:21PM 36.6892 -86.7319 353° North 88 101 11,000 -60 Descending Memphis Center
04:22PM 36.7144 -86.7358 353° North 88 101 11,100  Climbing Memphis Center
04:23PM 36.7394 -86.7425 348° North 88 101 11,000  Descending Memphis Center
04:24PM 36.7628 -86.7492 347° North 88 101 11,100  Climbing Memphis Center
04:25PM 36.7858 -86.7533 352° North 88 101 11,100  Level Memphis Center
04:26PM 36.8131 -86.7600 349° North 88 101 11,100  Level Memphis Center
04:27PM 36.8381 -86.7614 357° North 88 101 11,100  Level Memphis Center
04:28PM 36.8611 -86.7681 347° North 88 101 11,100  Level Memphis Center
04:29PM 36.8864 -86.7747 348° North 88 101 11,100 -60 Level Memphis Center
04:30PM 36.9094 -86.7842 342° North 89 102 11,000 -60 Descending Memphis Center
04:31PM 36.9369 -86.7908 349° North 96 110 11,000  Level Memphis Center
04:32PM 36.9642 -86.7972 349° North 96 110 11,000  Level Memphis Center
04:33PM 36.9850 -86.8017 350° North 91 105 11,000  Level Memphis Center
04:34PM 37.0103 -86.8108 344° North 91 105 11,100  Climbing Memphis Center
04:36PM 37.0453 -86.8136 356° North 109 125 11,000 -120 Descending Indianapolis Center
04:37PM 37.0744 -86.8183 353° North 106 122 10,900  Descending Indianapolis Center
04:38PM 37.1003 -86.8236 351° North 95 109 11,000  Climbing Indianapolis Center
04:39PM 37.1294 -86.8306 349° North 91 105 11,000  Level Indianapolis Center
04:40PM 37.1567 -86.8372 349° North 96 110 11,000  Level Indianapolis Center
04:41PM 37.1819 -86.8422 351° North 93 107 11,100  Climbing Indianapolis Center
04:42PM 37.2078 -86.8514 344° North 96 110 11,000 -120 Descending Indianapolis Center
04:43PM 37.2358 -86.8583 349° North 101 116 10,900  Descending Indianapolis Center
04:44PM 37.2611 -86.8653 348° North 95 109 11,000  Climbing Indianapolis Center
04:45PM 37.2878 -86.8719 349° North 96 110 11,000  Level Indianapolis Center
04:46PM 37.3131 -86.8786 348° North 94 108 11,000  Level Indianapolis Center
04:47PM 37.3400 -86.8833 352° North 84 97 11,000  Level Indianapolis Center
04:48PM 37.3625 -86.8883 350° North 80 92 11,000  Level Indianapolis Center
04:49PM 37.3853 -86.8983 341° North 84 97 11,000 -60 Level Indianapolis Center
04:50PM 37.4125 -86.9036 351° North 95 109 10,900  Descending Indianapolis Center
04:51PM 37.4336 -86.9103 346° North 82 94 11,000  Climbing Indianapolis Center
04:52PM 37.4561 -86.9172 346° North 83 96 11,000  Level Indianapolis Center
04:53PM 37.4814 -86.9233 349° North 90 104 11,000  Level Indianapolis Center
04:54PM 37.5122 -86.9292 351° North 95 109 11,000 -60 Level Indianapolis Center
04:55PM 37.5386 -86.9364 348° North 100 115 10,900  Descending Indianapolis Center
04:56PM 37.5647 -86.9414 351° North 98 113 11,000  Climbing Indianapolis Center
04:57PM 37.5892 -86.9467 350° North 91 105 11,000  Level Indianapolis Center
04:58PM 37.6208 -86.9544 349° North 95 109 11,000  Level Indianapolis Center
04:59PM 37.6450 -86.9619 346° North 91 105 11,000  Level Indianapolis Center
05:00PM 37.6700 -86.9697 346° North 91 105 11,000  Level Indianapolis Center
05:01PM 37.6967 -86.9758 350° North 95 109 11,000  Level Indianapolis Center
05:03PM 37.7239 -86.9811 351° North 98 113 11,000  Level Indianapolis Center
05:04PM 37.7506 -86.9881 348° North 98 113 11,000 -60 Level Indianapolis Center
05:05PM 37.7775 -86.9939 350° North 97 112 10,900  Descending Indianapolis Center
05:06PM 37.8075 -86.9972 355° North 90 104 11,000  Climbing Indianapolis Center
05:07PM 37.8314 -87.0044 347° North 88 101 11,000  Level Indianapolis Center
05:08PM 37.8569 -87.0111 348° North 92 106 11,000  Level Indianapolis Center
05:09PM 37.8822 -87.0183 347° North 91 105 11,000  Level Indianapolis Center
05:10PM 37.9086 -87.0231 352° North 96 110 11,000  Level Indianapolis Center
05:11PM 37.9342 -87.0294 349° North 93 107 11,100  Climbing Indianapolis Center
05:12PM 37.9608 -87.0361 349° North 97 112 11,000 -60 Descending Indianapolis Center
05:13PM 37.9925 -87.0436 349° North 96 110 11,000  Level Indianapolis Center
05:14PM 38.0189 -87.0497 350° North 95 109 11,000  Level Indianapolis Center
05:15PM 38.0436 -87.0556 349° North 91 105 11,000  Level Indianapolis Center
05:16PM 38.0689 -87.0619 349° North 92 106 11,000  Level Indianapolis Center
05:17PM 38.0939 -87.0689 348° North 91 105 11,000 -60 Level Indianapolis Center
05:18PM 38.1178 -87.0756 348° North 87 100 10,900  Descending Indianapolis Center
05:19PM 38.1414 -87.0819 348° North 86 99 11,000  Climbing Indianapolis Center
05:20PM 38.1711 -87.0889 350° North 89 102 11,000  Level Indianapolis Center
05:21PM 38.1958 -87.0964 347° North 90 104 11,100  Climbing Indianapolis Center
05:22PM 38.2206 -87.1028 349° North 90 104 11,000 -60 Descending Indianapolis Center
05:23PM 38.2461 -87.1086 350° North 91 105 11,000  Level Indianapolis Center
05:24PM 38.2706 -87.1144 349° North 88 101 11,000  Level Indianapolis Center
05:25PM 38.2917 -87.1225 343° North 80 92 11,000  Level Indianapolis Center
05:26PM 38.3158 -87.1294 347° North 86 99 11,000  Level Indianapolis Center
05:27PM 38.3392 -87.1367 346° North 85 98 11,000 -60 Level Indianapolis Center
05:28PM 38.3642 -87.1417 351° North 88 101 10,900  Descending Indianapolis Center
05:29PM 38.3881 -87.1481 348° North 87 100 11,000 60 Climbing Indianapolis Center
05:30PM 38.4169 -87.1531 352° North 87 100 11,100  Climbing Indianapolis Center
05:31PM 38.4419 -87.1589 350° North 90 104 11,000 -60 Descending Indianapolis Center
05:33PM 38.4683 -87.1647 350° North 95 109 11,000  Level Indianapolis Center
05:34PM 38.4942 -87.1694 352° North 94 108 11,000  Level Indianapolis Center
05:35PM 38.5214 -87.1778 347° North 98 113 11,000  Level Indianapolis Center
05:36PM 38.5472 -87.1856 347° North 96 110 11,000  Level Indianapolis Center
05:37PM 38.5722 -87.1919 349° North 92 106 11,000  Level Indianapolis Center
05:38PM 38.5994 -87.1994 348° North 85 98 11,000  Level Indianapolis Center
05:39PM 38.6225 -87.2056 348° North 85 98 11,000  Level Indianapolis Center
05:40PM 38.6461 -87.2092 353° North 85 98 11,000  Level Indianapolis Center
05:41PM 38.6700 -87.2153 349° North 85 98 11,000  Level Indianapolis Center
05:42PM 38.6931 -87.2214 348° North 85 98 11,000  Level Indianapolis Center
05:43PM 38.7150 -87.2292 345° North 83 96 11,000  Level Indianapolis Center
05:44PM 38.7372 -87.2364 346° North 82 94 11,100  Climbing Indianapolis Center
05:45PM 38.7639 -87.2450 346° North 82 94 11,100 -60 Level Indianapolis Center
05:46PM 38.7878 -87.2506 350° North 85 98 11,000 -60 Descending Indianapolis Center
05:47PM 38.8111 -87.2569 348° North 86 99 11,000  Level Indianapolis Center
05:48PM 38.8344 -87.2617 351° North 85 98 11,000  Level Indianapolis Center
05:49PM 38.8583 -87.2667 351° North 85 98 11,100  Climbing Indianapolis Center
05:50PM 38.8825 -87.2736 347° North 87 100 11,100 -60 Level Indianapolis Center
05:51PM 38.9086 -87.2789 351° North 93 107 11,000  Descending Indianapolis Center
05:52PM 38.9356 -87.2856 349° North 85 98 11,100  Climbing Indianapolis Center
05:53PM 38.9578 -87.2919 347° North 82 94 11,000 -60 Descending Indianapolis Center
05:54PM 38.9797 -87.2989 346° North 81 93 11,000  Level Indianapolis Center
05:55PM 39.0017 -87.3058 346° North 81 93 11,000  Level Indianapolis Center
05:56PM 39.0228 -87.3117 348° North 79 91 11,000  Level Indianapolis Center
05:57PM 39.0453 -87.3175 349° North 81 93 11,000 -60 Level Indianapolis Center
05:58PM 39.0656 -87.3231 348° North 76 87 10,900 -420 Descending Indianapolis Center
05:59PM 39.0967 -87.3344 344° North 87 100 10,200 -600 Descending Indianapolis Center
06:00PM 39.1261 -87.3372 356° North 98 113 9,700 -540 Descending Indianapolis Center
06:01PM 39.1564 -87.3433 351° North 104 120 9,200 -540 Descending Indianapolis Center
06:03PM 39.1831 -87.3500 349° North 102 117 8,700 -540 Descending Indianapolis Center
06:04PM 39.2094 -87.3589 345° North 99 114 8,100 -360 Descending Indianapolis Center
06:05PM 39.2350 -87.3661 348° North 97 112 8,000  Descending Indianapolis Center
06:06PM 39.2631 -87.3722 350° North 88 101 8,100  Climbing Indianapolis Center
06:07PM 39.2856 -87.3786 348° North 84 97 8,100  Level Indianapolis Center
06:08PM 39.3089 -87.3858 347° North 85 98 8,100  Level Indianapolis Center
06:09PM 39.3358 -87.3900 353° North 93 107 8,100  Level Indianapolis Center
06:10PM 39.3592 -87.3933 354° North 89 102 8,100  Level Indianapolis Center
06:11PM 39.3825 -87.3997 348° North 86 99 8,100  Level Indianapolis Center
06:12PM 39.4097 -87.4072 348° North 85 98 8,100  Level Indianapolis Center
06:13PM 39.4339 -87.4133 349° North 87 100 8,100  Level Indianapolis Center
06:14PM 39.4575 -87.4214 345° North 87 100 8,100  Level Indianapolis Center
06:15PM 39.4819 -87.4275 349° North 89 102 8,100 -60 Level Indianapolis Center
06:16PM 39.5069 -87.4339 349° North 91 105 8,000 -60 Descending Indianapolis Center
06:17PM 39.5314 -87.4397 350° North 90 104 8,000  Level Indianapolis Center
06:19PM 39.5836 -87.4517 350° North 87 100 8,100  Climbing Indianapolis Center
06:20PM 39.6064 -87.4597 345° North 86 99 8,100 -60 Level Indianapolis Center
06:21PM 39.6319 -87.4647 351° North 91 105 8,000  Descending Indianapolis Center
06:22PM 39.6575 -87.4711 349° North 93 107 8,100  Climbing Indianapolis Center
06:23PM 39.6894 -87.4803 348° North 96 110 8,000 -60 Descending Indianapolis Center
06:24PM 39.7164 -87.4872 349° North 99 114 8,000  Level Indianapolis Center
06:25PM 39.7431 -87.4928 351° North 97 112 8,100  Climbing Indianapolis Center
06:26PM 39.7692 -87.4981 351° North 96 110 8,100  Level Indianapolis Center
06:27PM 39.7936 -87.5050 348° North 93 107 8,100  Level Indianapolis Center
06:28PM 39.8186 -87.5119 348° North 92 106 8,100  Level Indianapolis Center
06:29PM 39.8514 -87.5169 353° North 96 110 8,100 -60 Level Indianapolis Center
06:30PM 39.8778 -87.5231 350° North 97 112 8,000 -60 Descending Indianapolis Center
06:31PM 39.9036 -87.5297 349° North 95 109 8,000  Level Indianapolis Center
06:32PM 39.9278 -87.5375 346° North 94 108 8,000  Level Indianapolis Center
06:34PM 39.9508 -87.5428 350° North 90 104 8,100  Climbing Indianapolis Center
06:35PM 39.9758 -87.5500 348° North 90 104 8,100 -60 Level Indianapolis Center
06:36PM 40.0075 -87.5567 351° North 95 109 8,000  Descending Indianapolis Center
06:37PM 40.0317 -87.5622 350° North 91 105 8,100  Climbing Indianapolis Center
06:38PM 40.0558 -87.5706 345° North 90 104 8,100  Level Indianapolis Center
06:39PM 40.0814 -87.5769 349° North 92 106 8,100  Level Indianapolis Center
06:40PM 40.1056 -87.5836 348° North 91 105 8,100  Level Indianapolis Center
06:41PM 40.1311 -87.5903 349° North 92 106 8,100  Level Indianapolis Center
06:42PM 40.1614 -87.5967 351° North 92 106 8,200  Climbing Indianapolis Center
06:43PM 40.1869 -87.6031 349° North 92 106 8,100 -60 Descending Indianapolis Center
06:44PM 40.2122 -87.6094 349° North 94 108 8,100  Level Indianapolis Center
06:45PM 40.2419 -87.6200 345° North 90 104 8,100  Level Chicago Center
06:46PM 40.2658 -87.6281 346° North 89 102 8,100  Level Chicago Center
06:47PM 40.2944 -87.6372 346° North 89 102 8,200  Climbing Chicago Center
06:48PM 40.3206 -87.6422 352° North 93 107 8,200 -300 Level Chicago Center
06:49PM 40.3447 -87.6511 344° North 92 106 7,600 -900 Descending Chicago Center
06:50PM 40.3728 -87.6608 345° North 101 116 6,400 -1,200 Descending Chicago Center
06:51PM 40.4028 -87.6628 357° North 105 121 5,200 -1,200 Descending Chicago Center
06:52PM 40.4381 -87.6614 North 106 122 4,000 -600 Descending Chicago Center
06:53PM 40.4628 -87.6619 359° North 99 114 4,000  Level Chicago Center
06:54PM 40.4856 -87.6653 354° North 91 105 4,000  Level Chicago Center
06:55PM 40.5083 -87.6747 343° North 87 100 4,000  Level Chicago Center
06:57PM 40.5311 -87.6842 343° North 86 99 4,000  Level Chicago Center
06:58PM 40.5558 -87.6900 350° North 81 93 4,100  Climbing Chicago Center
06:59PM 40.5786 -87.6992 343° North 82 94 4,000 -240 Descending Chicago Center
07:00PM 40.6019 -87.7064 347° North 84 97 3,700 -540 Descending Chicago Center
07:01PM 40.6261 -87.7161 343° North 88 101 3,000 -360 Descending Chicago Center
07:02PM 40.6500 -87.7256 343° North 89 102 3,000  Level Chicago Center
07:03PM 40.6739 -87.7325 348° North 89 102 3,100  Climbing Chicago Center
07:04PM 40.7047 -87.7400 350° North 92 106 3,100 -60 Level Chicago Center
07:05PM 40.7297 -87.7464 349° North 92 106 3,000 -60 Descending Chicago Center
07:06PM 40.7544 -87.7533 348° North 92 106 3,000  Level Chicago Center
07:07PM 40.7783 -87.7583 351° North 90 104 3,000  Level Chicago Center
07:08PM 40.8039 -87.7575 North 90 104 3,100  Climbing Chicago Center
07:09PM 40.8336 -87.7567 North 90 104 3,100  Level Chicago Center
07:10PM 40.8581 -87.7583 357° North 89 102 3,100 -60 Level Chicago Center
07:11PM 40.8825 -87.7600 357° North 89 102 3,000 -300 Descending Chicago Center
07:12PM 40.9056 -87.7650 351° North 87 100 2,600 -300 Descending Chicago Center
07:13PM 40.9261 -87.7750 340° North 83 96 2,400 -120 Descending Chicago Center
07:14PM 40.9503 -87.7883 337° Northwest 81 93 2,400 -60 Level Chicago Center
07:15PM 40.9722 -87.7978 342° North 81 93 2,300 -180 Descending Chicago Center
07:16PM 40.9917 -87.8072 340° North 78 90 2,100 -540 Descending Chicago Center
07:17PM 41.0131 -87.8172 341° North 79 91 1,200 -420 Descending Chicago Center
07:18PM 41.0314 -87.8253 342° North 76 87 1,300 -60 Climbing Chicago Center
07:19PM 41.0492 -87.8336 341° North 71 82 1,100 -180 Descending Chicago Center
07:20PM 41.0686 -87.8425 341° North 69 79 1,000 -120 Descending Chicago Center